Philip, SD (57567)

4:12 PM MST on March 02, 2015 (GMT -0700)
Philip | Change Station
CLOSE
Current Station
Airport
Location: Philip,
Elevation: 2208 ft
Nearby Weather Stations
Active Advisory: Winter Storm Warning

Elev 2208 ft 44.05 °N, 101.60 °W | Updated 17 minutes ago

Clear
Clear
47 °F
Feels Like 47 °F
N
15
Wind Variable Wind from South

Today
High -- | Low -- °F
--% Chance of Precip.
Yesterday
High -- | Low -- °F
Precip. -- in
6:22 AM 5:36 PM
Waxing Gibbous, 93% visible
Pressure 29.81 in
Visibility 10.0 miles
Clouds Clear
Dew Point 16 °F
Humidity 29%
Rainfall 0.00 in
Snow Depth Not available.
UV 1 out of 12
Pollen 1.20 out of 12
Air Quality Not available.
Flu Activity Not available.
METAR KPHP 022255Z AUTO 18013KT 10SM CLR 08/M09 A2974 RMK AO2 SLP093 T00831089

More Conditions Fewer Conditions

Pressure 29.81 in
Visibility 10.0 miles
Clouds Clear
Dew Point 16 °F
Humidity 29%
Rainfall 0.00 in
Snow Depth Not available.
UV 1 out of 12
Pollen 1.20 out of 12
Air Quality Not available.
Flu Activity Not available.
METAR KPHP 022255Z AUTO 18013KT 10SM CLR 08/M09 A2974 RMK AO2 SLP093 T00831089

More Conditions Fewer Conditions

10-Day Weather Forecast

Almanac

Astronomy

Mar. 02, 2015 Rise Set
Actual Time
Civil Twilight
Nautical Twilight
Astronomical Twilight
Moon
Length of Visible Light
Length of Day
Tomorrow will be .
, % of the Moon is Illuminated

Today's Extremes

State Highs State Lows

Community

WunderPhotos

Upload Photos

1,801,995 photos uploaded!

WunderBlogs® & News

Nearby

Air Quality

  Air Quality AQ Index Pollutant
Not available.

Snow Depth

Station Depth Elevation

Earthquake Activity

City Distance Mag. Time & Date
Minimum magnitude displayed is 2.5.

Coastal Water Temperatures

Place Temperature

Nearby Weather Stations

Winter Storm Warning
Statement as of 2:29 PM CST on March 02, 2015

... Winter Storm Warning in effect from 11 PM MST /midnight CST/
this evening to noon MST /1 PM CST/ Tuesday...

The National Weather Service in Rapid City has issued a Winter
Storm Warning for snow and blowing snow... which is in effect from
11 PM MST /midnight CST/ this evening to noon MST /1 PM CST/
Tuesday.

* Timing... late this evening into Tuesday morning.

* Main hazard... snowfall of 2 to 5 inches along with northwest
winds gusting in excess of 40 mph will produce visibilities less
than one half miles at times due to blowing snow.

* Impacts... travel will become very difficult late tonight into
Tuesday.

Precautionary/preparedness actions...

This Winter Storm Warning means snow and strong winds will create
dangerous conditions.